sensor_id;sensor_type;location;lat;lon;timestamp;P1;durP1;ratioP1;P2;durP2;ratioP2
10050;SDS011;5065;46.942;7.432;2022-11-27T00:01:08;9.87;;;7.63;;
10050;SDS011;5065;46.942;7.432;2022-11-27T00:03:37;11.27;;;7.90;;
10050;SDS011;5065;46.942;7.432;2022-11-27T00:06:06;15.37;;;8.40;;
10050;SDS011;5065;46.942;7.432;2022-11-27T00:08:37;12.17;;;7.80;;
10050;SDS011;5065;46.942;7.432;2022-11-27T00:11:06;11.17;;;8.07;;
10050;SDS011;5065;46.942;7.432;2022-11-27T00:13:34;10.03;;;7.60;;
10050;SDS011;5065;46.942;7.432;2022-11-27T00:16:03;11.97;;;7.60;;
10050;SDS011;5065;46.942;7.432;2022-11-27T00:18:32;11.40;;;7.40;;
10050;SDS011;5065;46.942;7.432;2022-11-27T00:21:01;14.47;;;7.87;;
10050;SDS011;5065;46.942;7.432;2022-11-27T00:23:30;11.67;;;7.43;;
10050;SDS011;5065;46.942;7.432;2022-11-27T00:25:58;11.23;;;7.60;;
10050;SDS011;5065;46.942;7.432;2022-11-27T00:28:27;15.70;;;9.03;;
10050;SDS011;5065;46.942;7.432;2022-11-27T00:30:56;10.83;;;7.70;;
10050;SDS011;5065;46.942;7.432;2022-11-27T00:33:25;10.50;;;7.43;;
10050;SDS011;5065;46.942;7.432;2022-11-27T00:35:52;24.63;;;8.77;;
10050;SDS011;5065;46.942;7.432;2022-11-27T00:38:20;14.83;;;8.40;;
10050;SDS011;5065;46.942;7.432;2022-11-27T00:40:48;16.90;;;7.83;;
10050;SDS011;5065;46.942;7.432;2022-11-27T00:43:15;12.33;;;8.23;;
10050;SDS011;5065;46.942;7.432;2022-11-27T00:45:47;12.57;;;7.53;;
10050;SDS011;5065;46.942;7.432;2022-11-27T00:48:14;12.77;;;7.73;;
10050;SDS011;5065;46.942;7.432;2022-11-27T00:50:41;13.80;;;7.30;;
10050;SDS011;5065;46.942;7.432;2022-11-27T00:53:09;10.93;;;7.57;;
10050;SDS011;5065;46.942;7.432;2022-11-27T00:55:36;16.27;;;7.03;;
10050;SDS011;5065;46.942;7.432;2022-11-27T00:58:04;20.73;;;7.17;;
10050;SDS011;5065;46.942;7.432;2022-11-27T01:00:31;12.70;;;7.67;;
10050;SDS011;5065;46.942;7.432;2022-11-27T01:02:59;17.17;;;7.17;;
10050;SDS011;5065;46.942;7.432;2022-11-27T01:05:26;13.23;;;7.43;;
10050;SDS011;5065;46.942;7.432;2022-11-27T01:07:53;10.63;;;7.60;;
10050;SDS011;5065;46.942;7.432;2022-11-27T01:10:21;10.30;;;6.57;;
10050;SDS011;5065;46.942;7.432;2022-11-27T01:12:49;10.10;;;6.67;;
10050;SDS011;5065;46.942;7.432;2022-11-27T01:15:17;10.53;;;6.63;;
10050;SDS011;5065;46.942;7.432;2022-11-27T01:17:45;8.83;;;6.57;;
10050;SDS011;5065;46.942;7.432;2022-11-27T01:20:12;8.37;;;6.07;;
10050;SDS011;5065;46.942;7.432;2022-11-27T01:22:40;10.53;;;6.00;;
10050;SDS011;5065;46.942;7.432;2022-11-27T01:25:07;8.43;;;6.37;;
10050;SDS011;5065;46.942;7.432;2022-11-27T01:27:34;9.43;;;6.67;;
10050;SDS011;5065;46.942;7.432;2022-11-27T01:30:02;13.23;;;7.10;;
10050;SDS011;5065;46.942;7.432;2022-11-27T01:32:31;13.33;;;7.10;;
10050;SDS011;5065;46.942;7.432;2022-11-27T01:34:59;11.93;;;7.13;;
10050;SDS011;5065;46.942;7.432;2022-11-27T01:37:26;9.03;;;6.57;;
10050;SDS011;5065;46.942;7.432;2022-11-27T01:39:54;12.27;;;7.30;;
10050;SDS011;5065;46.942;7.432;2022-11-27T01:42:21;14.00;;;7.80;;
10050;SDS011;5065;46.942;7.432;2022-11-27T01:44:50;10.60;;;5.87;;
10050;SDS011;5065;46.942;7.432;2022-11-27T01:47:23;12.97;;;7.30;;
10050;SDS011;5065;46.942;7.432;2022-11-27T01:50:03;19.37;;;7.67;;
10050;SDS011;5065;46.942;7.432;2022-11-27T01:52:41;11.80;;;6.87;;
10050;SDS011;5065;46.942;7.432;2022-11-27T01:55:12;12.47;;;6.33;;
10050;SDS011;5065;46.942;7.432;2022-11-27T01:57:45;11.73;;;6.70;;
10050;SDS011;5065;46.942;7.432;2022-11-27T02:00:15;9.60;;;6.67;;
10050;SDS011;5065;46.942;7.432;2022-11-27T02:02:43;10.57;;;6.90;;
10050;SDS011;5065;46.942;7.432;2022-11-27T02:05:13;11.87;;;6.63;;
10050;SDS011;5065;46.942;7.432;2022-11-27T02:07:43;10.53;;;6.37;;
10050;SDS011;5065;46.942;7.432;2022-11-27T02:10:10;10.13;;;5.97;;
10050;SDS011;5065;46.942;7.432;2022-11-27T02:12:40;8.93;;;6.40;;
10050;SDS011;5065;46.942;7.432;2022-11-27T02:15:19;10.63;;;6.10;;
10050;SDS011;5065;46.942;7.432;2022-11-27T02:17:51;9.63;;;6.43;;
10050;SDS011;5065;46.942;7.432;2022-11-27T02:20:34;8.40;;;5.80;;
10050;SDS011;5065;46.942;7.432;2022-11-27T02:23:21;7.10;;;5.43;;
10050;SDS011;5065;46.942;7.432;2022-11-27T02:26:10;8.87;;;5.60;;
10050;SDS011;5065;46.942;7.432;2022-11-27T02:28:59;8.90;;;6.13;;
10050;SDS011;5065;46.942;7.432;2022-11-27T02:31:30;12.90;;;6.37;;
10050;SDS011;5065;46.942;7.432;2022-11-27T02:34:07;8.93;;;5.37;;
10050;SDS011;5065;46.942;7.432;2022-11-27T02:36:42;10.87;;;6.10;;
10050;SDS011;5065;46.942;7.432;2022-11-27T02:39:16;12.87;;;6.23;;
10050;SDS011;5065;46.942;7.432;2022-11-27T02:41:49;6.80;;;4.93;;
10050;SDS011;5065;46.942;7.432;2022-11-27T02:44:22;9.03;;;5.80;;
10050;SDS011;5065;46.942;7.432;2022-11-27T02:46:52;9.17;;;5.40;;
10050;SDS011;5065;46.942;7.432;2022-11-27T02:49:20;9.13;;;5.27;;
10050;SDS011;5065;46.942;7.432;2022-11-27T02:51:51;10.57;;;4.93;;
10050;SDS011;5065;46.942;7.432;2022-11-27T02:54:21;9.00;;;5.03;;
10050;SDS011;5065;46.942;7.432;2022-11-27T02:56:52;11.20;;;5.23;;
10050;SDS011;5065;46.942;7.432;2022-11-27T02:59:22;7.20;;;4.97;;
10050;SDS011;5065;46.942;7.432;2022-11-27T03:01:52;10.17;;;5.43;;
10050;SDS011;5065;46.942;7.432;2022-11-27T03:04:24;9.17;;;5.10;;
10050;SDS011;5065;46.942;7.432;2022-11-27T03:06:58;9.37;;;5.40;;
10050;SDS011;5065;46.942;7.432;2022-11-27T03:09:33;8.80;;;5.60;;
10050;SDS011;5065;46.942;7.432;2022-11-27T03:12:03;8.80;;;5.60;;
10050;SDS011;5065;46.942;7.432;2022-11-27T03:14:35;9.00;;;4.73;;
10050;SDS011;5065;46.942;7.432;2022-11-27T03:17:09;10.00;;;4.90;;
10050;SDS011;5065;46.942;7.432;2022-11-27T03:19:45;8.07;;;5.10;;
10050;SDS011;5065;46.942;7.432;2022-11-27T03:22:16;9.00;;;5.50;;
10050;SDS011;5065;46.942;7.432;2022-11-27T03:24:44;6.30;;;4.93;;
10050;SDS011;5065;46.942;7.432;2022-11-27T03:27:14;7.43;;;5.00;;
10050;SDS011;5065;46.942;7.432;2022-11-27T03:29:48;7.67;;;5.07;;
10050;SDS011;5065;46.942;7.432;2022-11-27T03:32:19;6.20;;;4.77;;
10050;SDS011;5065;46.942;7.432;2022-11-27T03:34:46;6.93;;;4.10;;
10050;SDS011;5065;46.942;7.432;2022-11-27T03:37:14;6.47;;;4.60;;
10050;SDS011;5065;46.942;7.432;2022-11-27T03:39:41;6.57;;;4.07;;
10050;SDS011;5065;46.942;7.432;2022-11-27T03:42:11;6.00;;;4.33;;
10050;SDS011;5065;46.942;7.432;2022-11-27T03:44:49;6.33;;;3.87;;
10050;SDS011;5065;46.942;7.432;2022-11-27T03:47:29;9.10;;;4.90;;
10050;SDS011;5065;46.942;7.432;2022-11-27T03:50:14;10.20;;;5.43;;
10050;SDS011;5065;46.942;7.432;2022-11-27T03:52:51;12.20;;;6.53;;
10050;SDS011;5065;46.942;7.432;2022-11-27T03:55:27;10.33;;;6.00;;
10050;SDS011;5065;46.942;7.432;2022-11-27T03:58:02;9.27;;;5.97;;
10050;SDS011;5065;46.942;7.432;2022-11-27T04:00:35;11.80;;;6.00;;
10050;SDS011;5065;46.942;7.432;2022-11-27T04:03:07;8.40;;;5.93;;
10050;SDS011;5065;46.942;7.432;2022-11-27T04:05:35;9.97;;;6.27;;
10050;SDS011;5065;46.942;7.432;2022-11-27T04:08:03;10.07;;;6.07;;
10050;SDS011;5065;46.942;7.432;2022-11-27T04:10:31;8.83;;;5.63;;
10050;SDS011;5065;46.942;7.432;2022-11-27T04:12:58;10.77;;;6.03;;
10050;SDS011;5065;46.942;7.432;2022-11-27T04:15:25;7.80;;;5.43;;
10050;SDS011;5065;46.942;7.432;2022-11-27T04:17:53;9.67;;;4.70;;
10050;SDS011;5065;46.942;7.432;2022-11-27T04:20:20;5.37;;;4.10;;
10050;SDS011;5065;46.942;7.432;2022-11-27T04:22:48;9.13;;;5.43;;
10050;SDS011;5065;46.942;7.432;2022-11-27T04:25:16;5.97;;;4.10;;
10050;SDS011;5065;46.942;7.432;2022-11-27T04:27:43;5.00;;;3.87;;
10050;SDS011;5065;46.942;7.432;2022-11-27T04:30:11;5.50;;;3.37;;
10050;SDS011;5065;46.942;7.432;2022-11-27T04:32:39;3.70;;;3.00;;
10050;SDS011;5065;46.942;7.432;2022-11-27T04:35:08;5.00;;;3.53;;
10050;SDS011;5065;46.942;7.432;2022-11-27T04:37:36;5.47;;;3.83;;
10050;SDS011;5065;46.942;7.432;2022-11-27T04:40:04;5.10;;;3.87;;
10050;SDS011;5065;46.942;7.432;2022-11-27T04:42:32;6.30;;;4.47;;
10050;SDS011;5065;46.942;7.432;2022-11-27T04:44:59;12.27;;;5.17;;
10050;SDS011;5065;46.942;7.432;2022-11-27T04:47:29;10.17;;;5.63;;
10050;SDS011;5065;46.942;7.432;2022-11-27T04:49:57;8.10;;;5.43;;
10050;SDS011;5065;46.942;7.432;2022-11-27T04:52:25;6.40;;;4.87;;
10050;SDS011;5065;46.942;7.432;2022-11-27T04:54:52;7.47;;;4.93;;
10050;SDS011;5065;46.942;7.432;2022-11-27T04:57:19;11.13;;;5.77;;
10050;SDS011;5065;46.942;7.432;2022-11-27T04:59:46;7.33;;;5.33;;
10050;SDS011;5065;46.942;7.432;2022-11-27T05:02:14;10.37;;;6.13;;
10050;SDS011;5065;46.942;7.432;2022-11-27T05:04:41;8.27;;;5.40;;
10050;SDS011;5065;46.942;7.432;2022-11-27T05:07:08;8.10;;;5.23;;
10050;SDS011;5065;46.942;7.432;2022-11-27T05:09:37;7.70;;;5.17;;
10050;SDS011;5065;46.942;7.432;2022-11-27T05:12:04;7.73;;;5.47;;
10050;SDS011;5065;46.942;7.432;2022-11-27T05:14:31;14.50;;;5.43;;
10050;SDS011;5065;46.942;7.432;2022-11-27T05:16:58;7.30;;;5.20;;
10050;SDS011;5065;46.942;7.432;2022-11-27T05:19:27;8.20;;;5.10;;
10050;SDS011;5065;46.942;7.432;2022-11-27T05:21:55;7.37;;;5.07;;
10050;SDS011;5065;46.942;7.432;2022-11-27T05:24:24;6.90;;;5.50;;
10050;SDS011;5065;46.942;7.432;2022-11-27T05:26:54;7.87;;;5.70;;
10050;SDS011;5065;46.942;7.432;2022-11-27T05:29:22;7.30;;;5.07;;
10050;SDS011;5065;46.942;7.432;2022-11-27T05:31:49;5.97;;;5.27;;
10050;SDS011;5065;46.942;7.432;2022-11-27T05:34:18;8.07;;;5.80;;
10050;SDS011;5065;46.942;7.432;2022-11-27T05:36:45;10.93;;;4.90;;
10050;SDS011;5065;46.942;7.432;2022-11-27T05:39:13;8.20;;;5.13;;
10050;SDS011;5065;46.942;7.432;2022-11-27T05:41:41;7.70;;;5.50;;
10050;SDS011;5065;46.942;7.432;2022-11-27T05:44:11;9.00;;;5.03;;
10050;SDS011;5065;46.942;7.432;2022-11-27T05:46:39;9.33;;;5.60;;
10050;SDS011;5065;46.942;7.432;2022-11-27T05:49:09;6.77;;;5.03;;
10050;SDS011;5065;46.942;7.432;2022-11-27T05:51:38;8.87;;;6.00;;
10050;SDS011;5065;46.942;7.432;2022-11-27T05:54:05;8.10;;;5.33;;
10050;SDS011;5065;46.942;7.432;2022-11-27T05:56:32;7.37;;;5.27;;
10050;SDS011;5065;46.942;7.432;2022-11-27T05:58:59;7.07;;;4.97;;
10050;SDS011;5065;46.942;7.432;2022-11-27T06:01:28;8.63;;;5.47;;
10050;SDS011;5065;46.942;7.432;2022-11-27T06:03:55;8.57;;;5.47;;
10050;SDS011;5065;46.942;7.432;2022-11-27T06:06:23;6.83;;;4.97;;
10050;SDS011;5065;46.942;7.432;2022-11-27T06:08:50;10.27;;;5.93;;
10050;SDS011;5065;46.942;7.432;2022-11-27T06:11:17;7.43;;;5.63;;
10050;SDS011;5065;46.942;7.432;2022-11-27T06:13:46;9.17;;;5.30;;
10050;SDS011;5065;46.942;7.432;2022-11-27T06:16:15;8.03;;;5.07;;
10050;SDS011;5065;46.942;7.432;2022-11-27T06:18:47;6.60;;;5.10;;
10050;SDS011;5065;46.942;7.432;2022-11-27T06:21:14;8.87;;;4.97;;
10050;SDS011;5065;46.942;7.432;2022-11-27T06:23:42;8.77;;;5.37;;
10050;SDS011;5065;46.942;7.432;2022-11-27T06:26:13;6.87;;;4.73;;
10050;SDS011;5065;46.942;7.432;2022-11-27T06:28:42;7.27;;;4.77;;
10050;SDS011;5065;46.942;7.432;2022-11-27T06:31:11;6.60;;;4.90;;
10050;SDS011;5065;46.942;7.432;2022-11-27T06:33:39;7.50;;;5.10;;
10050;SDS011;5065;46.942;7.432;2022-11-27T06:36:08;7.10;;;5.20;;
10050;SDS011;5065;46.942;7.432;2022-11-27T06:38:36;6.87;;;5.33;;
10050;SDS011;5065;46.942;7.432;2022-11-27T06:41:04;6.97;;;5.30;;
10050;SDS011;5065;46.942;7.432;2022-11-27T06:43:33;6.87;;;4.70;;
10050;SDS011;5065;46.942;7.432;2022-11-27T06:46:00;8.27;;;4.83;;
10050;SDS011;5065;46.942;7.432;2022-11-27T06:48:28;8.00;;;5.03;;
10050;SDS011;5065;46.942;7.432;2022-11-27T06:50:57;6.83;;;4.73;;
10050;SDS011;5065;46.942;7.432;2022-11-27T06:53:30;5.97;;;4.87;;
10050;SDS011;5065;46.942;7.432;2022-11-27T06:55:58;6.17;;;4.17;;
10050;SDS011;5065;46.942;7.432;2022-11-27T06:58:27;7.60;;;4.43;;
10050;SDS011;5065;46.942;7.432;2022-11-27T07:00:56;5.80;;;4.10;;
10050;SDS011;5065;46.942;7.432;2022-11-27T07:03:24;5.33;;;4.03;;
10050;SDS011;5065;46.942;7.432;2022-11-27T07:05:51;6.73;;;4.43;;
10050;SDS011;5065;46.942;7.432;2022-11-27T07:08:19;6.93;;;4.30;;
10050;SDS011;5065;46.942;7.432;2022-11-27T07:10:47;6.13;;;4.77;;
10050;SDS011;5065;46.942;7.432;2022-11-27T07:13:15;7.83;;;4.23;;
10050;SDS011;5065;46.942;7.432;2022-11-27T07:15:42;5.47;;;4.37;;
10050;SDS011;5065;46.942;7.432;2022-11-27T07:18:09;5.33;;;4.10;;
10050;SDS011;5065;46.942;7.432;2022-11-27T07:20:37;7.80;;;4.27;;
10050;SDS011;5065;46.942;7.432;2022-11-27T07:23:04;4.80;;;4.07;;
10050;SDS011;5065;46.942;7.432;2022-11-27T07:25:31;4.20;;;3.60;;
10050;SDS011;5065;46.942;7.432;2022-11-27T07:28:00;6.40;;;4.20;;
10050;SDS011;5065;46.942;7.432;2022-11-27T07:30:27;5.37;;;4.27;;
10050;SDS011;5065;46.942;7.432;2022-11-27T07:32:55;6.90;;;4.27;;
10050;SDS011;5065;46.942;7.432;2022-11-27T07:35:22;6.10;;;4.57;;
10050;SDS011;5065;46.942;7.432;2022-11-27T07:37:49;6.80;;;4.73;;
10050;SDS011;5065;46.942;7.432;2022-11-27T07:40:16;8.33;;;5.20;;
10050;SDS011;5065;46.942;7.432;2022-11-27T07:42:43;5.90;;;4.33;;
10050;SDS011;5065;46.942;7.432;2022-11-27T07:45:12;8.83;;;5.57;;
10050;SDS011;5065;46.942;7.432;2022-11-27T07:47:39;7.03;;;4.43;;
10050;SDS011;5065;46.942;7.432;2022-11-27T07:50:07;6.80;;;3.70;;
10050;SDS011;5065;46.942;7.432;2022-11-27T07:52:35;7.77;;;4.40;;
10050;SDS011;5065;46.942;7.432;2022-11-27T07:55:04;9.40;;;4.60;;
10050;SDS011;5065;46.942;7.432;2022-11-27T07:57:31;5.10;;;3.80;;
10050;SDS011;5065;46.942;7.432;2022-11-27T07:59:58;5.17;;;3.93;;
10050;SDS011;5065;46.942;7.432;2022-11-27T08:02:27;5.93;;;4.20;;
10050;SDS011;5065;46.942;7.432;2022-11-27T08:04:55;6.90;;;4.47;;
10050;SDS011;5065;46.942;7.432;2022-11-27T08:07:25;7.30;;;5.63;;
10050;SDS011;5065;46.942;7.432;2022-11-27T08:09:53;8.43;;;5.63;;
10050;SDS011;5065;46.942;7.432;2022-11-27T08:12:21;7.27;;;3.73;;
10050;SDS011;5065;46.942;7.432;2022-11-27T08:14:49;5.57;;;4.43;;
10050;SDS011;5065;46.942;7.432;2022-11-27T08:17:17;5.83;;;4.53;;
10050;SDS011;5065;46.942;7.432;2022-11-27T08:19:46;8.37;;;5.37;;
10050;SDS011;5065;46.942;7.432;2022-11-27T08:22:14;8.27;;;4.93;;
10050;SDS011;5065;46.942;7.432;2022-11-27T08:24:43;6.00;;;5.00;;
10050;SDS011;5065;46.942;7.432;2022-11-27T08:27:12;7.43;;;5.20;;
10050;SDS011;5065;46.942;7.432;2022-11-27T08:29:39;7.63;;;5.03;;
10050;SDS011;5065;46.942;7.432;2022-11-27T08:32:07;6.73;;;5.33;;
10050;SDS011;5065;46.942;7.432;2022-11-27T08:34:34;6.37;;;5.47;;
10050;SDS011;5065;46.942;7.432;2022-11-27T08:37:03;7.00;;;5.00;;
10050;SDS011;5065;46.942;7.432;2022-11-27T08:39:30;6.73;;;4.93;;
10050;SDS011;5065;46.942;7.432;2022-11-27T08:41:58;4.97;;;3.73;;
10050;SDS011;5065;46.942;7.432;2022-11-27T08:44:25;6.77;;;3.97;;
10050;SDS011;5065;46.942;7.432;2022-11-27T08:46:52;7.97;;;5.03;;
10050;SDS011;5065;46.942;7.432;2022-11-27T08:49:20;7.37;;;4.97;;
10050;SDS011;5065;46.942;7.432;2022-11-27T08:51:47;5.37;;;4.40;;
10050;SDS011;5065;46.942;7.432;2022-11-27T08:54:16;7.57;;;5.60;;
10050;SDS011;5065;46.942;7.432;2022-11-27T08:56:43;22.47;;;15.30;;
10050;SDS011;5065;46.942;7.432;2022-11-27T08:59:10;5.47;;;4.40;;
10050;SDS011;5065;46.942;7.432;2022-11-27T09:01:37;6.03;;;4.53;;
10050;SDS011;5065;46.942;7.432;2022-11-27T09:04:06;6.13;;;3.50;;
10050;SDS011;5065;46.942;7.432;2022-11-27T09:06:34;5.30;;;3.63;;
10050;SDS011;5065;46.942;7.432;2022-11-27T09:09:02;6.53;;;3.87;;
10050;SDS011;5065;46.942;7.432;2022-11-27T09:11:32;5.20;;;3.60;;
10050;SDS011;5065;46.942;7.432;2022-11-27T09:14:00;6.77;;;4.23;;
10050;SDS011;5065;46.942;7.432;2022-11-27T09:16:28;5.07;;;3.37;;
10050;SDS011;5065;46.942;7.432;2022-11-27T09:18:56;5.90;;;3.23;;
10050;SDS011;5065;46.942;7.432;2022-11-27T09:21:24;4.27;;;2.90;;
10050;SDS011;5065;46.942;7.432;2022-11-27T09:23:52;3.73;;;2.73;;
10050;SDS011;5065;46.942;7.432;2022-11-27T09:26:20;7.27;;;2.93;;
10050;SDS011;5065;46.942;7.432;2022-11-27T09:28:51;5.63;;;3.43;;
10050;SDS011;5065;46.942;7.432;2022-11-27T09:31:19;4.27;;;3.40;;
10050;SDS011;5065;46.942;7.432;2022-11-27T09:33:47;4.97;;;3.33;;
10050;SDS011;5065;46.942;7.432;2022-11-27T09:36:15;4.30;;;3.30;;
10050;SDS011;5065;46.942;7.432;2022-11-27T09:38:44;5.27;;;2.60;;
10050;SDS011;5065;46.942;7.432;2022-11-27T09:41:19;4.90;;;3.30;;
10050;SDS011;5065;46.942;7.432;2022-11-27T09:44:09;5.97;;;3.23;;
10050;SDS011;5065;46.942;7.432;2022-11-27T09:46:44;5.70;;;3.80;;
10050;SDS011;5065;46.942;7.432;2022-11-27T09:49:12;9.57;;;3.50;;
10050;SDS011;5065;46.942;7.432;2022-11-27T09:51:44;8.83;;;3.03;;
10050;SDS011;5065;46.942;7.432;2022-11-27T09:54:17;3.60;;;2.53;;
10050;SDS011;5065;46.942;7.432;2022-11-27T09:56:50;8.60;;;5.23;;
10050;SDS011;5065;46.942;7.432;2022-11-27T09:59:21;4.13;;;2.37;;
10050;SDS011;5065;46.942;7.432;2022-11-27T10:01:51;3.53;;;2.03;;
10050;SDS011;5065;46.942;7.432;2022-11-27T10:04:18;4.43;;;2.40;;
10050;SDS011;5065;46.942;7.432;2022-11-27T10:06:53;5.33;;;2.93;;
10050;SDS011;5065;46.942;7.432;2022-11-27T10:09:33;4.27;;;2.80;;
10050;SDS011;5065;46.942;7.432;2022-11-27T10:12:12;5.30;;;2.97;;
10050;SDS011;5065;46.942;7.432;2022-11-27T10:14:51;7.60;;;2.63;;
10050;SDS011;5065;46.942;7.432;2022-11-27T10:17:28;5.97;;;3.23;;
10050;SDS011;5065;46.942;7.432;2022-11-27T10:20:02;3.70;;;2.50;;
10050;SDS011;5065;46.942;7.432;2022-11-27T10:22:41;4.00;;;3.30;;
10050;SDS011;5065;46.942;7.432;2022-11-27T10:25:16;5.10;;;3.10;;
10050;SDS011;5065;46.942;7.432;2022-11-27T10:27:49;6.47;;;3.37;;
10050;SDS011;5065;46.942;7.432;2022-11-27T10:30:25;4.13;;;3.00;;
10050;SDS011;5065;46.942;7.432;2022-11-27T10:32:56;5.57;;;3.00;;
10050;SDS011;5065;46.942;7.432;2022-11-27T10:35:27;4.87;;;2.97;;
10050;SDS011;5065;46.942;7.432;2022-11-27T10:37:58;5.57;;;3.00;;
10050;SDS011;5065;46.942;7.432;2022-11-27T10:40:33;3.73;;;2.60;;
10050;SDS011;5065;46.942;7.432;2022-11-27T10:43:09;5.13;;;3.37;;
10050;SDS011;5065;46.942;7.432;2022-11-27T10:45:50;5.37;;;3.87;;
10050;SDS011;5065;46.942;7.432;2022-11-27T10:48:29;7.70;;;3.90;;
10050;SDS011;5065;46.942;7.432;2022-11-27T10:50:58;5.97;;;3.90;;
10050;SDS011;5065;46.942;7.432;2022-11-27T10:53:29;5.07;;;3.67;;
10050;SDS011;5065;46.942;7.432;2022-11-27T10:59:08;4.73;;;3.20;;
10050;SDS011;5065;46.942;7.432;2022-11-27T11:01:43;4.13;;;3.27;;
10050;SDS011;5065;46.942;7.432;2022-11-27T11:04:13;6.73;;;3.80;;
10050;SDS011;5065;46.942;7.432;2022-11-27T11:06:41;5.70;;;3.27;;
10050;SDS011;5065;46.942;7.432;2022-11-27T11:09:12;6.70;;;3.87;;
10050;SDS011;5065;46.942;7.432;2022-11-27T11:11:41;8.67;;;4.10;;
10050;SDS011;5065;46.942;7.432;2022-11-27T11:14:15;21.87;;;12.87;;
10050;SDS011;5065;46.942;7.432;2022-11-27T11:16:45;7.80;;;5.33;;
10050;SDS011;5065;46.942;7.432;2022-11-27T11:19:23;5.43;;;4.27;;
10050;SDS011;5065;46.942;7.432;2022-11-27T11:21:54;5.90;;;4.17;;
10050;SDS011;5065;46.942;7.432;2022-11-27T11:24:24;7.95;;;5.22;;
10050;SDS011;5065;46.942;7.432;2022-11-27T11:26:54;9.33;;;5.03;;
10050;SDS011;5065;46.942;7.432;2022-11-27T11:29:29;10.30;;;5.30;;
10050;SDS011;5065;46.942;7.432;2022-11-27T11:32:04;5.13;;;4.30;;
10050;SDS011;5065;46.942;7.432;2022-11-27T11:34:34;5.90;;;4.50;;
10050;SDS011;5065;46.942;7.432;2022-11-27T11:37:07;6.30;;;4.73;;
10050;SDS011;5065;46.942;7.432;2022-11-27T11:39:46;11.10;;;6.30;;
10050;SDS011;5065;46.942;7.432;2022-11-27T11:42:19;7.37;;;5.70;;
10050;SDS011;5065;46.942;7.432;2022-11-27T11:44:48;8.30;;;6.17;;
10050;SDS011;5065;46.942;7.432;2022-11-27T11:47:19;9.40;;;6.33;;
10050;SDS011;5065;46.942;7.432;2022-11-27T11:49:51;28.87;;;17.83;;
10050;SDS011;5065;46.942;7.432;2022-11-27T11:52:24;11.43;;;7.47;;
10050;SDS011;5065;46.942;7.432;2022-11-27T11:54:58;8.67;;;6.30;;
10050;SDS011;5065;46.942;7.432;2022-11-27T11:57:39;11.23;;;6.83;;
10050;SDS011;5065;46.942;7.432;2022-11-27T12:00:37;7.23;;;5.60;;
10050;SDS011;5065;46.942;7.432;2022-11-27T12:03:15;8.33;;;5.87;;
10050;SDS011;5065;46.942;7.432;2022-11-27T12:05:56;8.57;;;6.17;;
10050;SDS011;5065;46.942;7.432;2022-11-27T12:08:43;8.23;;;6.10;;
10050;SDS011;5065;46.942;7.432;2022-11-27T12:11:21;9.03;;;6.00;;
10050;SDS011;5065;46.942;7.432;2022-11-27T12:13:59;10.90;;;7.30;;
10050;SDS011;5065;46.942;7.432;2022-11-27T12:16:37;8.87;;;6.70;;
10050;SDS011;5065;46.942;7.432;2022-11-27T12:22:34;9.87;;;6.47;;
10050;SDS011;5065;46.942;7.432;2022-11-27T12:25:16;9.47;;;7.13;;
10050;SDS011;5065;46.942;7.432;2022-11-27T12:27:54;7.93;;;6.40;;
10050;SDS011;5065;46.942;7.432;2022-11-27T12:30:34;11.27;;;7.00;;
10050;SDS011;5065;46.942;7.432;2022-11-27T12:33:13;9.63;;;7.03;;
10050;SDS011;5065;46.942;7.432;2022-11-27T12:35:51;12.00;;;7.40;;
10050;SDS011;5065;46.942;7.432;2022-11-27T12:38:30;10.43;;;6.43;;
10050;SDS011;5065;46.942;7.432;2022-11-27T12:41:14;9.90;;;7.07;;
10050;SDS011;5065;46.942;7.432;2022-11-27T12:43:51;9.73;;;6.67;;
10050;SDS011;5065;46.942;7.432;2022-11-27T12:46:25;12.33;;;7.00;;
10050;SDS011;5065;46.942;7.432;2022-11-27T12:49:03;9.63;;;6.90;;
10050;SDS011;5065;46.942;7.432;2022-11-27T12:51:38;9.40;;;7.20;;
10050;SDS011;5065;46.942;7.432;2022-11-27T12:54:13;9.53;;;7.40;;
10050;SDS011;5065;46.942;7.432;2022-11-27T12:56:44;9.53;;;6.70;;
10050;SDS011;5065;46.942;7.432;2022-11-27T12:59:15;11.27;;;7.23;;
10050;SDS011;5065;46.942;7.432;2022-11-27T13:01:46;10.20;;;7.13;;
10050;SDS011;5065;46.942;7.432;2022-11-27T13:04:20;8.47;;;6.73;;
10050;SDS011;5065;46.942;7.432;2022-11-27T13:06:52;9.97;;;7.43;;
10050;SDS011;5065;46.942;7.432;2022-11-27T13:09:26;11.90;;;7.20;;
10050;SDS011;5065;46.942;7.432;2022-11-27T13:12:02;11.27;;;6.27;;
10050;SDS011;5065;46.942;7.432;2022-11-27T13:14:31;8.60;;;6.47;;
10050;SDS011;5065;46.942;7.432;2022-11-27T13:17:03;11.30;;;7.00;;
10050;SDS011;5065;46.942;7.432;2022-11-27T13:19:36;9.47;;;6.53;;
10050;SDS011;5065;46.942;7.432;2022-11-27T13:22:11;17.77;;;6.40;;
10050;SDS011;5065;46.942;7.432;2022-11-27T13:24:50;8.87;;;6.33;;
10050;SDS011;5065;46.942;7.432;2022-11-27T13:28:05;9.60;;;6.97;;
10050;SDS011;5065;46.942;7.432;2022-11-27T13:31:16;9.23;;;7.07;;
10050;SDS011;5065;46.942;7.432;2022-11-27T13:33:37;10.97;;;7.17;;
10050;SDS011;5065;46.942;7.432;2022-11-27T13:36:17;8.97;;;7.13;;
10050;SDS011;5065;46.942;7.432;2022-11-27T13:38:52;10.93;;;8.03;;
10050;SDS011;5065;46.942;7.432;2022-11-27T13:41:57;8.43;;;6.47;;
10050;SDS011;5065;46.942;7.432;2022-11-27T13:44:38;10.73;;;5.90;;
10050;SDS011;5065;46.942;7.432;2022-11-27T13:47:36;11.13;;;5.90;;
10050;SDS011;5065;46.942;7.432;2022-11-27T13:50:15;10.73;;;6.63;;
10050;SDS011;5065;46.942;7.432;2022-11-27T13:52:51;7.40;;;5.60;;
10050;SDS011;5065;46.942;7.432;2022-11-27T13:55:29;9.33;;;6.10;;
10050;SDS011;5065;46.942;7.432;2022-11-27T13:58:33;12.17;;;6.60;;
10050;SDS011;5065;46.942;7.432;2022-11-27T14:01:24;8.27;;;6.00;;
10050;SDS011;5065;46.942;7.432;2022-11-27T14:04:07;9.37;;;6.47;;
10050;SDS011;5065;46.942;7.432;2022-11-27T14:06:50;7.80;;;6.40;;
10050;SDS011;5065;46.942;7.432;2022-11-27T14:10:04;8.03;;;7.20;;
10050;SDS011;5065;46.942;7.432;2022-11-27T14:12:50;10.33;;;6.77;;
10050;SDS011;5065;46.942;7.432;2022-11-27T14:15:34;8.17;;;5.93;;
10050;SDS011;5065;46.942;7.432;2022-11-27T14:21:26;9.97;;;6.10;;
10050;SDS011;5065;46.942;7.432;2022-11-27T14:24:22;8.60;;;6.83;;
10050;SDS011;5065;46.942;7.432;2022-11-27T14:27:16;8.87;;;5.60;;
10050;SDS011;5065;46.942;7.432;2022-11-27T14:30:18;8.77;;;6.20;;
10050;SDS011;5065;46.942;7.432;2022-11-27T14:33:21;8.10;;;6.00;;
10050;SDS011;5065;46.942;7.432;2022-11-27T14:35:55;10.93;;;5.97;;
10050;SDS011;5065;46.942;7.432;2022-11-27T14:38:44;9.47;;;6.63;;
10050;SDS011;5065;46.942;7.432;2022-11-27T14:41:15;9.43;;;6.20;;
10050;SDS011;5065;46.942;7.432;2022-11-27T14:43:43;7.23;;;5.70;;
10050;SDS011;5065;46.942;7.432;2022-11-27T14:46:12;7.73;;;5.73;;
10050;SDS011;5065;46.942;7.432;2022-11-27T14:48:44;7.87;;;5.40;;
10050;SDS011;5065;46.942;7.432;2022-11-27T14:51:13;11.27;;;7.73;;
10050;SDS011;5065;46.942;7.432;2022-11-27T14:53:43;11.63;;;7.43;;
10050;SDS011;5065;46.942;7.432;2022-11-27T14:56:11;10.53;;;6.20;;
10050;SDS011;5065;46.942;7.432;2022-11-27T14:58:59;12.50;;;5.30;;
10050;SDS011;5065;46.942;7.432;2022-11-27T15:01:28;6.83;;;5.10;;
10050;SDS011;5065;46.942;7.432;2022-11-27T15:03:58;9.40;;;5.17;;
10050;SDS011;5065;46.942;7.432;2022-11-27T15:06:28;7.63;;;5.67;;
10050;SDS011;5065;46.942;7.432;2022-11-27T15:09:02;9.03;;;5.80;;
10050;SDS011;5065;46.942;7.432;2022-11-27T15:11:59;7.93;;;5.53;;
10050;SDS011;5065;46.942;7.432;2022-11-27T15:15:05;6.57;;;5.00;;
10050;SDS011;5065;46.942;7.432;2022-11-27T15:18:01;8.97;;;5.33;;
10050;SDS011;5065;46.942;7.432;2022-11-27T15:20:34;6.07;;;4.77;;
10050;SDS011;5065;46.942;7.432;2022-11-27T15:24:21;7.63;;;6.37;;
10050;SDS011;5065;46.942;7.432;2022-11-27T15:26:29;9.20;;;7.43;;
10050;SDS011;5065;46.942;7.432;2022-11-27T15:28:59;10.67;;;6.73;;
10050;SDS011;5065;46.942;7.432;2022-11-27T15:31:30;10.50;;;7.97;;
10050;SDS011;5065;46.942;7.432;2022-11-27T15:34:00;9.67;;;6.90;;
10050;SDS011;5065;46.942;7.432;2022-11-27T15:36:33;11.97;;;7.53;;
10050;SDS011;5065;46.942;7.432;2022-11-27T15:39:17;9.90;;;6.90;;